createdAt,value
2022-12-09T00:00:16.367Z,5.10
2022-12-09T00:02:43.870Z,5.20
2022-12-09T00:05:11.707Z,5.55
2022-12-09T00:07:39.096Z,5.60
2022-12-09T00:10:07.836Z,5.78
2022-12-09T00:12:35.344Z,5.65
2022-12-09T00:15:02.916Z,5.43
2022-12-09T00:17:31.380Z,6.20
2022-12-09T00:19:58.728Z,6.15
2022-12-09T00:22:27.874Z,5.40
2022-12-09T00:24:55.339Z,5.57
2022-12-09T00:27:22.636Z,5.90
2022-12-09T00:29:49.945Z,5.78
2022-12-09T00:32:17.533Z,6.13
2022-12-09T00:34:44.938Z,6.38
2022-12-09T00:37:12.435Z,5.80
2022-12-09T00:39:39.750Z,6.47
2022-12-09T00:42:07.011Z,5.93
2022-12-09T00:44:34.310Z,6.00
2022-12-09T00:47:01.611Z,6.45
2022-12-09T00:49:28.894Z,6.75
2022-12-09T00:51:56.160Z,6.57
2022-12-09T00:54:23.504Z,6.30
2022-12-09T00:56:50.720Z,6.35
2022-12-09T00:59:18.133Z,6.68
2022-12-09T01:01:45.421Z,6.88
2022-12-09T01:04:12.745Z,6.43
2022-12-09T01:06:40.337Z,6.68
2022-12-09T01:09:07.896Z,6.60
2022-12-09T01:11:35.700Z,7.05
2022-12-09T01:14:04.162Z,6.15
2022-12-09T01:16:33.761Z,6.85
2022-12-09T01:19:04.368Z,6.93
2022-12-09T01:21:33.231Z,6.43
2022-12-09T01:24:01.237Z,6.47
2022-12-09T01:26:28.641Z,6.40
2022-12-09T01:28:57.519Z,6.43
2022-12-09T01:31:26.028Z,6.75
2022-12-09T01:33:56.148Z,6.88
2022-12-09T01:36:26.914Z,6.88
2022-12-09T01:38:54.292Z,6.68
2022-12-09T01:41:22.733Z,6.88
2022-12-09T01:44:08.837Z,6.95
2022-12-09T01:46:36.629Z,6.78
2022-12-09T01:49:04.421Z,7.20
2022-12-09T01:51:32.794Z,7.07
2022-12-09T01:54:00.886Z,6.85
2022-12-09T01:56:34.978Z,7.28
2022-12-09T01:59:14.586Z,6.90
2022-12-09T02:01:44.423Z,7.53
2022-12-09T02:04:11.962Z,7.38
2022-12-09T02:06:39.926Z,7.50
2022-12-09T02:09:08.097Z,7.15
2022-12-09T02:11:55.720Z,7.47
2022-12-09T02:14:31.686Z,7.25
2022-12-09T02:16:59.140Z,7.38
2022-12-09T02:20:01.604Z,7.32
2022-12-09T02:22:48.254Z,7.40
2022-12-09T02:25:26.672Z,7.80
2022-12-09T02:27:57.062Z,7.93
2022-12-09T02:30:34.643Z,7.70
2022-12-09T02:33:20.771Z,7.85
2022-12-09T02:36:07.779Z,7.95
2022-12-09T02:38:39.506Z,7.65
2022-12-09T02:41:21.315Z,8.07
2022-12-09T02:44:01.006Z,9.05
2022-12-09T02:46:29.376Z,8.30
2022-12-09T02:48:59.293Z,8.85
2022-12-09T02:51:30.863Z,8.23
2022-12-09T02:54:08.965Z,8.68
2022-12-09T02:56:37.310Z,9.30
2022-12-09T02:59:04.804Z,8.43
2022-12-09T03:01:52.298Z,7.82
2022-12-09T03:04:24.124Z,8.32
2022-12-09T03:06:53.811Z,8.10
2022-12-09T03:09:27.386Z,7.30
2022-12-09T03:11:59.519Z,7.55
2022-12-09T03:14:35.626Z,8.57
2022-12-09T03:17:13.878Z,7.80
2022-12-09T03:20:18.935Z,7.45
2022-12-09T03:22:48.358Z,7.88
2022-12-09T03:25:22.007Z,7.70
2022-12-09T03:27:56.543Z,8.23
2022-12-09T03:30:24.059Z,8.25
2022-12-09T03:32:53.354Z,7.63
2022-12-09T03:35:46.914Z,7.93
2022-12-09T03:38:19.478Z,7.97
2022-12-09T03:40:53.930Z,7.60
2022-12-09T03:43:27.875Z,9.07
2022-12-09T03:45:57.503Z,7.80
2022-12-09T03:48:25.559Z,8.05
2022-12-09T03:51:16.594Z,8.43
2022-12-09T03:53:50.921Z,8.13
2022-12-09T03:56:23.028Z,8.52
2022-12-09T03:58:53.876Z,8.15
2022-12-09T04:01:23.649Z,8.30
2022-12-09T04:03:55.117Z,8.55
2022-12-09T04:06:23.340Z,7.55
2022-12-09T04:08:50.952Z,8.45
2022-12-09T04:11:18.448Z,8.07
2022-12-09T04:13:45.743Z,8.05
2022-12-09T04:16:13.325Z,8.75
2022-12-09T04:18:40.912Z,8.35
2022-12-09T04:21:09.944Z,8.13
2022-12-09T04:23:42.494Z,8.10
2022-12-09T04:26:15.618Z,8.93
2022-12-09T04:28:43.374Z,8.98
2022-12-09T04:31:12.828Z,9.50
2022-12-09T04:33:41.099Z,10.02
2022-12-09T04:36:12.438Z,9.63
2022-12-09T04:38:40.851Z,9.68
2022-12-09T04:41:08.748Z,9.57
2022-12-09T04:43:36.417Z,9.35
2022-12-09T04:46:06.554Z,9.63
2022-12-09T04:48:34.301Z,9.05
2022-12-09T04:51:02.029Z,8.80
2022-12-09T04:53:29.860Z,9.45
2022-12-09T04:56:01.217Z,9.15
2022-12-09T04:58:29.209Z,8.90
2022-12-09T05:00:57.400Z,8.32
2022-12-09T05:03:25.474Z,8.43
2022-12-09T05:05:53.270Z,9.00
2022-12-09T05:08:21.141Z,9.55
2022-12-09T05:10:49.992Z,8.95
2022-12-09T05:13:17.776Z,9.43
2022-12-09T05:15:45.167Z,9.32
2022-12-09T05:18:12.666Z,9.20
2022-12-09T05:20:40.744Z,9.18
2022-12-09T05:23:09.871Z,10.18
2022-12-09T05:25:37.887Z,9.70
2022-12-09T05:28:05.251Z,9.80
2022-12-09T05:30:32.579Z,9.93
2022-12-09T05:32:59.987Z,9.65
2022-12-09T05:35:27.371Z,9.52
2022-12-09T05:37:54.881Z,9.88
2022-12-09T05:40:22.970Z,11.15
2022-12-09T05:42:50.694Z,11.82
2022-12-09T05:45:18.064Z,12.80
2022-12-09T05:47:45.607Z,11.80
2022-12-09T05:50:13.737Z,12.20
2022-12-09T05:52:41.476Z,13.13
2022-12-09T05:55:10.386Z,13.75
2022-12-09T05:57:38.005Z,12.10
2022-12-09T06:00:07.949Z,13.15
2022-12-09T06:02:35.877Z,13.23
2022-12-09T06:05:04.013Z,13.50
2022-12-09T06:07:31.994Z,13.15
2022-12-09T06:09:59.532Z,13.70
2022-12-09T06:12:27.410Z,12.90
2022-12-09T06:14:54.974Z,14.23
2022-12-09T06:17:22.370Z,13.95
2022-12-09T06:19:49.887Z,12.50
2022-12-09T06:22:17.417Z,12.40
2022-12-09T06:24:45.030Z,13.55
2022-12-09T06:27:12.352Z,13.00
2022-12-09T06:29:39.694Z,12.60
2022-12-09T06:32:07.094Z,12.45
2022-12-09T06:34:34.994Z,12.50
2022-12-09T06:37:02.763Z,12.63
2022-12-09T06:39:30.248Z,12.50
2022-12-09T06:41:57.819Z,11.88
2022-12-09T06:44:25.246Z,12.95
2022-12-09T06:46:53.017Z,11.48
2022-12-09T06:49:20.705Z,11.73
2022-12-09T06:51:48.065Z,12.55
2022-12-09T06:54:16.099Z,11.80
2022-12-09T06:56:43.644Z,11.90
2022-12-09T06:59:11.867Z,11.95
2022-12-09T07:01:39.771Z,12.38
2022-12-09T07:04:07.897Z,12.32
2022-12-09T07:06:38.743Z,12.32
2022-12-09T07:09:09.985Z,12.18
2022-12-09T07:11:38.501Z,12.68
2022-12-09T07:14:06.906Z,13.20
2022-12-09T07:16:35.298Z,12.15
2022-12-09T07:19:03.847Z,12.73
2022-12-09T07:21:31.635Z,12.40
2022-12-09T07:24:03.922Z,13.52
2022-12-09T07:26:33.622Z,13.48
2022-12-09T07:29:06.164Z,13.82
2022-12-09T07:31:34.569Z,13.13
2022-12-09T07:34:03.105Z,13.52
2022-12-09T07:36:32.195Z,13.13
2022-12-09T07:39:02.341Z,12.70
2022-12-09T07:41:29.855Z,13.75
2022-12-09T07:43:57.993Z,13.10
2022-12-09T07:46:29.071Z,12.63
2022-12-09T07:48:58.277Z,12.68
2022-12-09T07:51:26.137Z,12.85
2022-12-09T07:53:54.194Z,13.10
2022-12-09T07:56:23.215Z,12.70
2022-12-09T07:58:53.508Z,13.45
2022-12-09T08:01:25.993Z,12.75
2022-12-09T08:03:54.465Z,12.45
2022-12-09T08:06:24.772Z,12.02
2022-12-09T08:08:53.234Z,13.25
2022-12-09T08:11:27.743Z,11.65
2022-12-09T08:14:05.648Z,11.80
2022-12-09T08:16:36.845Z,11.90
2022-12-09T08:19:04.642Z,12.10
2022-12-09T08:21:33.470Z,11.63
2022-12-09T08:24:03.526Z,11.52
2022-12-09T08:26:32.568Z,11.02
2022-12-09T08:29:00.802Z,11.85
2022-12-09T08:31:29.122Z,10.90
2022-12-09T08:33:57.246Z,11.52
2022-12-09T08:36:28.270Z,11.93
2022-12-09T08:38:58.935Z,11.52
2022-12-09T08:41:39.068Z,11.93
2022-12-09T08:44:12.363Z,11.65
2022-12-09T08:46:42.890Z,11.68
2022-12-09T08:49:11.704Z,12.10
2022-12-09T08:51:39.686Z,11.82
2022-12-09T08:54:07.751Z,12.20
2022-12-09T08:56:35.419Z,11.65
2022-12-09T08:59:03.748Z,11.52
2022-12-09T09:01:34.874Z,12.10
2022-12-09T09:04:06.646Z,11.90
2022-12-09T09:06:34.982Z,11.80
2022-12-09T09:09:03.105Z,12.30
2022-12-09T09:11:31.645Z,12.63
2022-12-09T09:13:59.505Z,11.90
2022-12-09T09:16:28.261Z,12.55
2022-12-09T09:18:56.418Z,13.52
2022-12-09T09:21:25.079Z,12.77
2022-12-09T09:23:53.336Z,13.10
2022-12-09T09:26:23.854Z,13.35
2022-12-09T09:28:51.842Z,13.25
2022-12-09T09:31:22.170Z,13.30
2022-12-09T09:33:50.772Z,13.55
2022-12-09T09:36:22.603Z,13.23
2022-12-09T09:38:52.310Z,13.57
2022-12-09T09:41:48.098Z,14.40
2022-12-09T09:44:36.126Z,14.30
2022-12-09T09:47:14.974Z,14.38
2022-12-09T09:49:52.525Z,14.07
2022-12-09T09:52:23.985Z,13.70
2022-12-09T09:54:54.848Z,14.07
2022-12-09T09:57:28.412Z,13.68
2022-12-09T10:00:21.965Z,13.25
2022-12-09T10:03:10.293Z,14.05
2022-12-09T10:05:50.886Z,14.77
2022-12-09T10:08:40.527Z,14.20
2022-12-09T10:11:31.816Z,14.98
2022-12-09T10:14:17.363Z,15.40
2022-12-09T10:19:49.450Z,16.10
2022-12-09T10:22:32.170Z,14.82
2022-12-09T10:25:08.115Z,15.57
2022-12-09T10:27:45.920Z,14.60
2022-12-09T10:30:17.757Z,15.52
2022-12-09T10:32:46.615Z,15.88
2022-12-09T10:35:20.676Z,15.15
2022-12-09T10:37:49.972Z,15.82
2022-12-09T10:40:46.913Z,15.32
2022-12-09T10:43:35.704Z,16.27
2022-12-09T10:46:18.009Z,16.38
2022-12-09T10:48:49.521Z,15.20
2022-12-09T10:51:24.881Z,16.13
2022-12-09T10:54:19.313Z,14.63
2022-12-09T10:57:22.875Z,16.15
2022-12-09T11:00:08.015Z,15.48
2022-12-09T11:02:35.981Z,14.82
2022-12-09T11:05:24.681Z,15.73
2022-12-09T11:07:56.154Z,14.90
2022-12-09T11:10:26.758Z,15.60
2022-12-09T11:13:07.464Z,15.00
2022-12-09T11:15:50.427Z,15.23
2022-12-09T11:18:32.960Z,13.20
2022-12-09T11:21:03.141Z,14.80
2022-12-09T11:23:30.980Z,14.80
2022-12-09T11:26:01.863Z,14.07
2022-12-09T11:28:40.468Z,15.20
2022-12-09T11:31:35.413Z,13.57
2022-12-09T11:34:16.328Z,13.48
2022-12-09T11:36:49.830Z,14.10
2022-12-09T11:39:37.560Z,14.20
2022-12-09T11:42:19.199Z,14.27
2022-12-09T11:44:52.368Z,13.68
2022-12-09T11:48:21.536Z,14.02
2022-12-09T11:50:32.744Z,14.00
2022-12-09T11:53:12.449Z,13.82
2022-12-09T11:55:49.343Z,13.65
2022-12-09T11:58:22.000Z,14.45
2022-12-09T12:01:02.769Z,13.85
2022-12-09T12:03:57.042Z,12.48
2022-12-09T12:06:42.407Z,13.45
2022-12-09T12:09:18.830Z,13.27
2022-12-09T12:11:53.579Z,13.20
2022-12-09T12:16:53.285Z,13.18
2022-12-09T12:19:38.584Z,12.57
2022-12-09T12:22:27.266Z,12.50
2022-12-09T12:25:31.851Z,12.45
2022-12-09T12:28:30.014Z,11.40
2022-12-09T12:31:06.043Z,12.07
2022-12-09T12:34:15.962Z,12.10
2022-12-09T12:37:05.023Z,12.10
2022-12-09T12:39:44.206Z,11.20
2022-12-09T12:42:19.952Z,11.35
2022-12-09T12:45:31.805Z,10.80
2022-12-09T12:48:04.479Z,11.35
2022-12-09T12:50:56.278Z,11.25
2022-12-09T12:53:39.611Z,11.88
2022-12-09T12:56:19.261Z,11.75
2022-12-09T12:59:14.820Z,11.32
2022-12-09T13:02:22.061Z,11.07
2022-12-09T13:04:57.735Z,10.68
2022-12-09T13:07:38.342Z,10.23
2022-12-09T13:10:14.182Z,11.80
2022-12-09T13:13:01.591Z,11.15
2022-12-09T13:15:35.984Z,10.98
2022-12-09T13:18:33.576Z,11.38
2022-12-09T13:21:03.714Z,10.88
2022-12-09T13:23:39.945Z,10.25
2022-12-09T13:26:21.019Z,11.15
2022-12-09T13:29:23.675Z,10.63
2022-12-09T13:32:02.001Z,10.82
2022-12-09T13:34:38.981Z,10.70
2022-12-09T13:37:26.227Z,10.38
2022-12-09T13:39:58.338Z,10.50
2022-12-09T13:42:47.606Z,10.48
2022-12-09T13:45:45.131Z,10.45
2022-12-09T13:48:16.949Z,9.98
2022-12-09T13:50:57.564Z,10.32
2022-12-09T13:53:32.587Z,10.18
2022-12-09T13:56:07.528Z,10.15
2022-12-09T13:58:37.763Z,9.63
2022-12-09T14:01:10.975Z,11.15
2022-12-09T14:04:01.471Z,10.27
2022-12-09T14:06:52.012Z,10.48
2022-12-09T14:09:38.029Z,10.23
2022-12-09T14:12:09.906Z,9.70
2022-12-09T14:14:48.578Z,10.13
2022-12-09T14:17:28.819Z,10.85
2022-12-09T14:20:17.873Z,10.30
2022-12-09T14:23:06.550Z,9.68
2022-12-09T14:25:33.892Z,9.75
2022-12-09T14:28:10.285Z,10.00
2022-12-09T14:30:49.196Z,9.52
2022-12-09T14:33:24.567Z,9.95
2022-12-09T14:35:56.126Z,9.98
2022-12-09T14:38:27.095Z,10.27
2022-12-09T14:41:12.554Z,9.68
2022-12-09T14:43:39.869Z,9.23
2022-12-09T14:46:31.087Z,9.75
2022-12-09T14:49:03.027Z,9.68
2022-12-09T14:51:35.278Z,9.15
2022-12-09T14:54:14.695Z,9.20
2022-12-09T14:56:51.205Z,10.05
2022-12-09T14:59:21.892Z,9.45
2022-12-09T15:01:56.835Z,9.70
2022-12-09T15:04:33.798Z,9.45
2022-12-09T15:07:27.473Z,9.55
2022-12-09T15:10:04.135Z,9.23
2022-12-09T15:12:53.206Z,9.95
2022-12-09T15:15:35.729Z,10.48
2022-12-09T15:18:15.332Z,10.60
2022-12-09T15:20:48.040Z,10.70
2022-12-09T15:23:32.267Z,10.75
2022-12-09T15:26:21.462Z,10.75
2022-12-09T15:28:50.928Z,11.43
2022-12-09T15:31:21.658Z,11.68
2022-12-09T15:33:54.569Z,11.88
2022-12-09T15:36:31.058Z,11.65
2022-12-09T15:39:10.138Z,11.50
2022-12-09T15:42:02.541Z,11.65
2022-12-09T15:44:35.999Z,12.02
2022-12-09T15:47:10.317Z,12.10
2022-12-09T15:52:11.690Z,11.65
2022-12-09T15:54:43.061Z,12.85
2022-12-09T15:57:14.671Z,12.30
2022-12-09T15:59:43.804Z,12.65
2022-12-09T16:02:19.877Z,12.63
2022-12-09T16:04:49.656Z,12.30
2022-12-09T16:07:19.745Z,13.38
2022-12-09T16:10:15.124Z,12.90
2022-12-09T16:15:14.216Z,13.82
2022-12-09T16:17:56.602Z,13.50
2022-12-09T16:20:35.802Z,14.23
2022-12-09T16:23:05.742Z,15.10
2022-12-09T16:26:04.900Z,14.80
2022-12-09T16:31:49.405Z,16.70
2022-12-09T16:34:23.545Z,16.10
2022-12-09T16:36:56.180Z,16.90
2022-12-09T16:39:23.366Z,16.20
2022-12-09T16:41:53.615Z,16.13
2022-12-09T16:44:28.143Z,16.02
2022-12-09T16:47:17.847Z,15.50
2022-12-09T16:49:47.693Z,14.95
2022-12-09T16:52:21.402Z,15.32
2022-12-09T16:54:50.395Z,15.77
2022-12-09T16:57:19.616Z,15.30
2022-12-09T16:59:47.478Z,16.60
2022-12-09T17:02:39.042Z,15.10
2022-12-09T17:05:07.076Z,15.70
2022-12-09T17:07:34.406Z,15.43
2022-12-09T17:10:01.774Z,16.05
2022-12-09T17:12:29.105Z,16.55
2022-12-09T17:14:56.428Z,16.67
2022-12-09T17:17:23.697Z,15.57
2022-12-09T17:19:51.323Z,17.00
2022-12-09T17:22:18.576Z,16.52
2022-12-09T17:24:45.882Z,16.00
2022-12-09T17:27:13.201Z,15.90
2022-12-09T17:29:40.613Z,17.30
2022-12-09T17:32:07.995Z,16.23
2022-12-09T17:34:35.443Z,16.60
2022-12-09T17:37:02.747Z,16.20
2022-12-09T17:39:30.303Z,16.70
2022-12-09T17:41:57.723Z,16.65
2022-12-09T17:44:25.143Z,16.33
2022-12-09T17:46:52.691Z,16.73
2022-12-09T17:49:20.482Z,16.58
2022-12-09T17:51:48.094Z,16.33
2022-12-09T17:54:15.595Z,16.90
2022-12-09T17:56:42.987Z,17.60
2022-12-09T17:59:13.283Z,16.73
2022-12-09T18:01:41.457Z,17.42
2022-12-09T18:04:10.445Z,16.13
2022-12-09T18:09:23.930Z,17.50
2022-12-09T18:11:54.439Z,17.35
2022-12-09T18:47:22.522Z,17.85
2022-12-09T18:49:49.792Z,17.63
2022-12-09T18:52:17.104Z,18.35
2022-12-09T18:54:45.798Z,17.75
2022-12-09T18:57:13.687Z,18.80
2022-12-09T18:59:40.925Z,19.08
2022-12-09T19:02:11.613Z,19.48
2022-12-09T19:04:39.176Z,21.08
2022-12-09T19:07:06.520Z,20.20
2022-12-09T19:09:36.282Z,18.77
2022-12-09T19:12:44.815Z,19.45
2022-12-09T19:14:52.681Z,18.85
2022-12-09T19:17:20.410Z,22.17
2022-12-09T19:19:48.642Z,19.45
2022-12-09T19:22:15.956Z,18.77
2022-12-09T19:24:44.220Z,19.63
2022-12-09T19:27:13.315Z,19.55
2022-12-09T19:29:40.616Z,19.70
2022-12-09T19:32:29.326Z,18.02
2022-12-09T19:34:55.423Z,18.83
2022-12-09T19:37:22.699Z,18.77
2022-12-09T19:39:50.398Z,18.65
2022-12-09T19:42:19.139Z,18.77
2022-12-09T19:45:06.552Z,18.98
2022-12-09T19:47:35.547Z,18.30
2022-12-09T19:50:02.907Z,17.58
2022-12-09T19:52:30.160Z,17.67
2022-12-09T19:54:57.418Z,18.33
2022-12-09T19:57:24.711Z,17.27
2022-12-09T19:59:51.978Z,18.20
2022-12-09T20:02:19.320Z,17.63
2022-12-09T20:04:49.662Z,18.30
2022-12-09T20:07:18.322Z,18.50
2022-12-09T20:09:45.960Z,18.17
2022-12-09T20:12:13.550Z,19.27
2022-12-09T20:14:41.050Z,19.20
2022-12-09T20:17:08.364Z,18.80
2022-12-09T20:19:36.629Z,17.50
2022-12-09T20:22:04.509Z,18.08
2022-12-09T20:24:31.757Z,18.90
2022-12-09T20:26:59.616Z,17.90
2022-12-09T20:29:28.232Z,19.70
2022-12-09T20:31:57.337Z,19.33
2022-12-09T20:34:25.195Z,18.73
2022-12-09T20:36:52.719Z,17.60
2022-12-09T20:39:21.200Z,18.02
2022-12-09T20:41:48.971Z,17.95
2022-12-09T20:44:17.387Z,18.83
2022-12-09T20:46:52.890Z,19.50
2022-12-09T20:49:26.203Z,19.65
2022-12-09T20:51:54.579Z,19.00
2022-12-09T20:54:22.257Z,19.98
2022-12-09T20:56:49.635Z,18.92
2022-12-09T20:59:17.041Z,18.85
2022-12-09T21:01:47.035Z,19.88
2022-12-09T21:04:15.074Z,20.17
2022-12-09T21:06:42.375Z,19.48
2022-12-09T21:09:14.655Z,20.05
2022-12-09T21:11:42.001Z,20.05
2022-12-09T21:14:10.001Z,20.35
2022-12-09T21:16:42.480Z,20.27
2022-12-09T21:19:14.166Z,19.88
2022-12-09T21:21:45.220Z,19.95
2022-12-09T21:24:13.427Z,21.23
2022-12-09T21:26:40.985Z,24.50
2022-12-09T21:29:10.095Z,24.98
2022-12-09T21:31:40.878Z,21.80
2022-12-09T21:34:10.202Z,20.60
2022-12-09T21:36:40.829Z,21.10
2022-12-09T21:39:09.114Z,20.10
2022-12-09T21:41:37.739Z,19.20
2022-12-09T21:44:06.182Z,20.05
2022-12-09T21:46:36.842Z,18.75
2022-12-09T21:49:06.013Z,19.17
2022-12-09T21:51:34.792Z,19.85
2022-12-09T21:54:02.890Z,18.83
2022-12-09T21:56:32.796Z,18.63
2022-12-09T21:59:00.947Z,19.65
2022-12-09T22:01:31.617Z,18.58
2022-12-09T22:04:00.566Z,18.83
2022-12-09T22:06:28.808Z,19.08
2022-12-09T22:08:57.920Z,18.70
2022-12-09T22:11:27.774Z,18.45
2022-12-09T22:13:58.238Z,18.35
2022-12-09T22:16:32.039Z,18.80
2022-12-09T22:19:01.333Z,18.63
2022-12-09T22:21:31.301Z,18.77
2022-12-09T22:24:01.757Z,20.10
2022-12-09T22:26:29.796Z,19.75
2022-12-09T22:28:59.133Z,18.58
2022-12-09T22:31:37.299Z,18.65
2022-12-09T22:34:16.590Z,19.45
2022-12-09T22:36:44.695Z,20.60
2022-12-09T22:39:17.144Z,20.25
2022-12-09T22:41:46.039Z,19.30
2022-12-09T22:44:15.116Z,19.83
2022-12-09T22:46:42.469Z,19.98
2022-12-09T22:49:13.472Z,19.73
2022-12-09T22:51:41.643Z,19.45
2022-12-09T22:54:09.800Z,20.65
2022-12-09T22:56:38.850Z,20.83
2022-12-09T22:59:06.406Z,21.48
2022-12-09T23:01:37.198Z,20.60
2022-12-09T23:04:05.926Z,20.45
2022-12-09T23:06:35.792Z,21.33
2022-12-09T23:09:03.573Z,20.80
2022-12-09T23:11:30.835Z,22.60
2022-12-09T23:13:59.950Z,22.45
2022-12-09T23:16:28.064Z,21.95
2022-12-09T23:18:57.520Z,21.83
2022-12-09T23:21:33.658Z,22.27
2022-12-09T23:24:07.492Z,20.80
2022-12-09T23:26:39.491Z,22.92
2022-12-09T23:29:11.604Z,22.05
2022-12-09T23:31:39.265Z,21.35
2022-12-09T23:34:08.518Z,22.85
2022-12-09T23:36:38.474Z,22.50
2022-12-09T23:39:11.979Z,22.38
2022-12-09T23:41:40.922Z,21.23
2022-12-09T23:44:13.351Z,22.45
2022-12-09T23:46:40.918Z,22.55
2022-12-09T23:49:08.807Z,23.02
2022-12-09T23:51:39.378Z,22.42
2022-12-09T23:54:08.183Z,22.65
2022-12-09T23:56:44.075Z,22.25
2022-12-09T23:59:14.204Z,22.80
